createdAt,value
2023-05-06T00:01:33.608Z,7.18
2023-05-06T00:04:00.861Z,7.65
2023-05-06T00:06:29.082Z,7.90
2023-05-06T00:08:56.757Z,7.90
2023-05-06T00:11:23.782Z,8.68
2023-05-06T00:13:50.886Z,8.10
2023-05-06T00:16:18.025Z,7.68
2023-05-06T00:18:45.291Z,7.15
2023-05-06T00:21:12.368Z,6.50
2023-05-06T00:23:39.421Z,7.68
2023-05-06T00:26:09.912Z,6.68
2023-05-06T00:28:40.217Z,6.90
2023-05-06T00:31:07.545Z,7.45
2023-05-06T00:33:34.595Z,6.57
2023-05-06T00:36:01.666Z,7.07
2023-05-06T00:38:28.693Z,7.03
2023-05-06T00:40:56.501Z,7.10
2023-05-06T00:43:23.538Z,7.15
2023-05-06T00:45:50.818Z,7.72
2023-05-06T00:48:18.017Z,7.88
2023-05-06T00:50:47.513Z,8.55
2023-05-06T00:53:14.596Z,8.23
2023-05-06T00:55:41.739Z,9.43
2023-05-06T00:58:11.357Z,10.27
2023-05-06T01:00:41.767Z,10.05
2023-05-06T01:03:09.349Z,10.10
2023-05-06T01:05:46.081Z,10.20
2023-05-06T01:08:17.700Z,9.55
2023-05-06T01:11:00.248Z,9.75
2023-05-06T01:13:49.014Z,9.68
2023-05-06T01:16:18.141Z,9.60
2023-05-06T01:18:45.201Z,9.60
2023-05-06T01:21:12.836Z,9.32
2023-05-06T01:23:58.294Z,9.40
2023-05-06T01:26:25.774Z,9.73
2023-05-06T01:28:53.356Z,9.43
2023-05-06T01:31:25.873Z,9.95
2023-05-06T01:34:02.796Z,9.68
2023-05-06T01:36:53.761Z,11.43
2023-05-06T01:39:25.046Z,11.35
2023-05-06T01:41:53.994Z,11.50
2023-05-06T01:44:22.342Z,11.98
2023-05-06T01:46:49.909Z,11.27
2023-05-06T01:49:17.211Z,12.25
2023-05-06T01:51:48.209Z,12.02
2023-05-06T01:54:15.316Z,11.88
2023-05-06T01:56:42.469Z,13.15
2023-05-06T01:59:09.546Z,12.80
2023-05-06T02:01:36.863Z,11.90
2023-05-06T02:04:04.657Z,11.82
2023-05-06T02:06:32.324Z,11.63
2023-05-06T02:08:59.735Z,12.88
2023-05-06T02:11:27.515Z,13.30
2023-05-06T02:14:02.381Z,13.40
2023-05-06T02:16:33.284Z,13.40
2023-05-06T02:19:01.003Z,12.63
2023-05-06T02:21:28.344Z,12.52
2023-05-06T02:23:55.403Z,12.68
2023-05-06T02:26:22.886Z,12.93
2023-05-06T02:28:49.830Z,13.45
2023-05-06T02:31:16.939Z,13.35
2023-05-06T02:33:48.189Z,13.35
2023-05-06T02:36:17.529Z,13.85
2023-05-06T02:38:44.551Z,14.23
2023-05-06T02:41:11.685Z,13.15
2023-05-06T02:43:38.735Z,13.13
2023-05-06T02:46:05.827Z,14.63
2023-05-06T02:48:33.024Z,13.77
2023-05-06T02:51:00.031Z,13.32
2023-05-06T02:53:26.996Z,13.75
2023-05-06T02:55:54.908Z,12.93
2023-05-06T02:58:22.707Z,12.73
2023-05-06T03:00:50.043Z,13.77
2023-05-06T03:03:17.917Z,13.13
2023-05-06T03:05:44.964Z,12.93
2023-05-06T03:08:11.990Z,11.90
2023-05-06T03:10:39.887Z,11.00
2023-05-06T03:13:07.025Z,11.38
2023-05-06T03:15:34.231Z,11.48
2023-05-06T03:18:01.792Z,11.77
2023-05-06T03:20:29.699Z,11.82
2023-05-06T03:22:59.044Z,12.05
2023-05-06T03:25:26.745Z,11.40
2023-05-06T03:27:55.101Z,11.82
2023-05-06T03:30:23.410Z,11.27
2023-05-06T03:32:56.761Z,12.35
2023-05-06T03:35:33.806Z,11.52
2023-05-06T03:38:02.332Z,10.85
2023-05-06T03:40:42.816Z,11.65
2023-05-06T03:43:10.063Z,12.43
2023-05-06T03:45:37.969Z,11.63
2023-05-06T03:48:06.394Z,10.63
2023-05-06T03:50:36.807Z,11.80
2023-05-06T03:53:06.343Z,10.45
2023-05-06T03:55:35.139Z,10.13
2023-05-06T03:58:02.401Z,10.10
2023-05-06T04:00:30.878Z,10.10
2023-05-06T04:02:58.609Z,11.20
2023-05-06T04:05:32.585Z,10.40
2023-05-06T04:08:00.162Z,10.55
2023-05-06T04:10:27.480Z,9.77
2023-05-06T04:13:00.896Z,10.45
2023-05-06T04:15:36.513Z,10.88
2023-05-06T04:18:08.853Z,10.82
2023-05-06T04:20:38.853Z,11.88
2023-05-06T04:23:06.129Z,11.48
2023-05-06T04:25:36.935Z,11.82
2023-05-06T04:28:04.498Z,11.13
2023-05-06T04:30:33.841Z,12.40
2023-05-06T04:33:02.709Z,11.90
2023-05-06T04:35:30.884Z,12.23
2023-05-06T04:37:58.272Z,11.82
2023-05-06T04:40:31.112Z,12.20
2023-05-06T04:42:58.846Z,11.93
2023-05-06T04:45:30.127Z,10.40
2023-05-06T04:47:57.388Z,10.80
2023-05-06T04:50:25.764Z,11.80
2023-05-06T04:52:53.831Z,13.45
2023-05-06T04:55:21.456Z,11.10
2023-05-06T04:57:51.991Z,10.68
2023-05-06T05:00:19.586Z,11.23
2023-05-06T05:02:46.956Z,10.38
2023-05-06T05:05:16.174Z,10.63
2023-05-06T05:07:46.653Z,11.13
2023-05-06T05:10:14.564Z,11.13
2023-05-06T05:12:41.786Z,11.48
2023-05-06T05:15:09.499Z,12.38
2023-05-06T05:17:38.840Z,13.50
2023-05-06T05:20:07.570Z,11.20
2023-05-06T05:22:34.580Z,11.50
2023-05-06T05:25:02.072Z,12.00
2023-05-06T05:27:32.379Z,11.77
2023-05-06T05:30:00.138Z,12.27
2023-05-06T05:32:27.272Z,12.32
2023-05-06T05:34:54.841Z,12.57
2023-05-06T05:37:22.772Z,11.80
2023-05-06T05:39:49.864Z,12.15
2023-05-06T05:42:17.713Z,11.65
2023-05-06T05:44:46.831Z,11.82
2023-05-06T05:47:14.636Z,12.02
2023-05-06T05:49:42.034Z,11.57
2023-05-06T05:52:10.329Z,11.70
2023-05-06T05:54:37.863Z,11.63
2023-05-06T05:57:05.660Z,12.40
2023-05-06T05:59:33.899Z,12.95
2023-05-06T06:02:05.175Z,14.13
2023-05-06T06:04:32.604Z,13.38
2023-05-06T06:07:02.054Z,13.63
2023-05-06T06:09:32.652Z,14.02
2023-05-06T06:12:02.017Z,13.35
2023-05-06T06:14:31.667Z,12.98
2023-05-06T06:16:59.382Z,13.10
2023-05-06T06:19:26.405Z,12.02
2023-05-06T06:21:54.726Z,12.05
2023-05-06T06:24:22.862Z,19.77
2023-05-06T06:26:50.211Z,13.88
2023-05-06T06:29:17.862Z,11.15
2023-05-06T06:31:44.932Z,10.93
2023-05-06T06:34:12.779Z,6.53
2023-05-06T06:36:45.085Z,7.65
2023-05-06T06:39:12.877Z,6.88
2023-05-06T06:41:39.946Z,6.07
2023-05-06T06:44:07.086Z,5.40
2023-05-06T06:46:37.501Z,5.18
2023-05-06T06:49:05.494Z,4.80
2023-05-06T06:51:32.559Z,5.00
2023-05-06T06:53:59.601Z,4.72
2023-05-06T06:56:27.759Z,4.63
2023-05-06T06:58:54.704Z,4.75
2023-05-06T07:01:22.158Z,4.35
2023-05-06T07:03:49.308Z,4.47
2023-05-06T07:06:19.211Z,4.53
2023-05-06T07:08:46.166Z,4.43
2023-05-06T07:11:25.433Z,4.97
2023-05-06T07:13:56.085Z,4.50
2023-05-06T07:25:22.124Z,4.25
2023-05-06T07:28:26.790Z,4.60
2023-05-06T07:30:57.391Z,5.20
2023-05-06T07:33:24.589Z,5.22
2023-05-06T07:35:56.174Z,4.30
2023-05-06T07:38:23.692Z,4.93
2023-05-06T07:40:53.509Z,4.88
2023-05-06T07:43:26.291Z,4.70
2023-05-06T07:46:09.365Z,5.00
2023-05-06T07:48:37.872Z,4.60
2023-05-06T07:51:06.104Z,4.90
2023-05-06T07:53:41.540Z,4.50
2023-05-06T07:56:08.911Z,4.88
2023-05-06T07:58:37.093Z,4.43
2023-05-06T08:01:11.097Z,5.18
2023-05-06T08:03:38.309Z,5.15
2023-05-06T08:06:10.814Z,4.80
2023-05-06T08:08:38.049Z,5.53
2023-05-06T08:11:05.212Z,4.90
2023-05-06T08:13:33.764Z,5.18
2023-05-06T08:16:02.530Z,4.90
2023-05-06T08:19:09.402Z,4.82
2023-05-06T08:21:36.468Z,5.53
2023-05-06T08:24:03.982Z,4.95
2023-05-06T08:26:51.340Z,4.82
2023-05-06T08:29:21.598Z,5.10
2023-05-06T08:31:56.125Z,5.50
2023-05-06T08:34:23.768Z,4.75
2023-05-06T08:36:52.037Z,5.72
2023-05-06T08:39:47.209Z,5.70
2023-05-06T08:42:16.066Z,5.32
2023-05-06T08:44:44.342Z,5.85
2023-05-06T08:47:15.253Z,5.82
2023-05-06T08:49:46.232Z,5.55
2023-05-06T08:52:14.296Z,5.75
2023-05-06T08:54:54.581Z,6.47
2023-05-06T08:57:24.370Z,5.38
2023-05-06T08:59:55.672Z,5.60
2023-05-06T09:02:27.282Z,5.30
2023-05-06T09:05:00.370Z,5.45
2023-05-06T09:07:30.843Z,6.07
2023-05-06T09:09:58.379Z,6.57
2023-05-06T09:12:44.017Z,6.82
2023-05-06T09:15:33.490Z,6.70
2023-05-06T09:18:32.585Z,6.82
2023-05-06T09:21:02.501Z,7.78
2023-05-06T09:23:32.563Z,7.65
2023-05-06T09:26:01.834Z,7.95
2023-05-06T09:28:39.114Z,8.07
2023-05-06T09:31:10.008Z,8.05
2023-05-06T09:33:39.041Z,8.13
2023-05-06T09:36:44.589Z,8.25
2023-05-06T09:39:13.044Z,8.70
2023-05-06T09:41:40.099Z,8.13
2023-05-06T09:44:07.349Z,9.38
2023-05-06T09:46:34.840Z,9.30
2023-05-06T09:49:01.984Z,10.27
2023-05-06T09:51:29.072Z,10.60
2023-05-06T09:53:56.835Z,11.18
2023-05-06T09:56:23.901Z,15.13
2023-05-06T09:58:51.169Z,16.73
2023-05-06T10:01:32.627Z,17.08
2023-05-06T10:04:09.208Z,16.23
2023-05-06T10:06:36.899Z,16.75
2023-05-06T10:09:04.026Z,15.52
2023-05-06T10:11:32.402Z,15.95
2023-05-06T10:14:00.978Z,16.90
2023-05-06T10:16:28.414Z,16.98
2023-05-06T10:18:56.112Z,17.95
2023-05-06T10:21:27.845Z,17.15
2023-05-06T10:24:01.468Z,17.27
2023-05-06T10:26:29.051Z,16.60
2023-05-06T10:28:56.815Z,17.88
2023-05-06T10:31:23.862Z,17.65
2023-05-06T10:33:51.341Z,18.45
2023-05-06T10:36:27.831Z,17.85
2023-05-06T10:38:56.602Z,18.80
2023-05-06T10:41:26.013Z,19.42
2023-05-06T10:43:57.287Z,17.73
2023-05-06T10:46:26.261Z,19.42
2023-05-06T10:49:11.541Z,18.98
2023-05-06T10:51:43.313Z,19.38
2023-05-06T10:54:21.607Z,19.35
2023-05-06T10:56:48.654Z,20.08
2023-05-06T10:59:16.914Z,20.55
2023-05-06T11:01:44.428Z,22.33
2023-05-06T11:04:16.013Z,21.23
2023-05-06T11:06:50.088Z,18.52
2023-05-06T11:09:23.795Z,19.45
2023-05-06T11:11:54.998Z,19.95
2023-05-06T11:14:30.666Z,20.52
2023-05-06T11:16:59.198Z,19.85
2023-05-06T11:19:32.611Z,20.00
2023-05-06T11:22:00.899Z,21.58
2023-05-06T11:24:28.434Z,20.65
2023-05-06T11:26:56.447Z,21.35
2023-05-06T11:29:24.618Z,22.05
2023-05-06T11:31:54.699Z,22.52
2023-05-06T11:34:31.985Z,20.17
2023-05-06T11:37:01.322Z,18.88
2023-05-06T11:39:36.632Z,19.65
2023-05-06T11:42:07.895Z,16.95
2023-05-06T11:44:37.569Z,15.40
2023-05-06T11:47:07.882Z,15.43
2023-05-06T11:49:40.108Z,19.30
2023-05-06T11:52:08.581Z,18.10
2023-05-06T11:54:36.628Z,19.02
2023-05-06T11:57:03.767Z,18.60
2023-05-06T11:59:32.405Z,17.70
2023-05-06T12:02:03.975Z,19.60
2023-05-06T12:04:47.555Z,16.77
2023-05-06T12:07:16.383Z,14.55
2023-05-06T12:09:45.665Z,13.05
2023-05-06T12:12:15.171Z,10.60
2023-05-06T12:14:42.262Z,10.40
2023-05-06T12:17:09.367Z,10.13
2023-05-06T12:19:36.981Z,9.43
2023-05-06T12:22:24.554Z,8.63
2023-05-06T12:24:51.793Z,8.98
2023-05-06T12:27:35.090Z,9.25
2023-05-06T12:30:04.643Z,9.25
2023-05-06T12:32:33.048Z,9.30
2023-05-06T12:35:05.990Z,8.93
2023-05-06T12:40:01.584Z,10.10
2023-05-06T12:42:31.739Z,8.85
2023-05-06T12:45:17.274Z,8.77
2023-05-06T12:47:54.295Z,9.90
2023-05-06T12:50:46.289Z,10.05
2023-05-06T12:53:15.265Z,10.55
2023-05-06T12:55:42.393Z,10.50
2023-05-06T12:58:22.372Z,10.60
2023-05-06T13:00:49.816Z,10.13
2023-05-06T13:03:17.589Z,11.30
2023-05-06T13:05:46.668Z,11.15
2023-05-06T13:08:13.865Z,11.70
2023-05-06T13:10:40.969Z,11.50
2023-05-06T13:13:08.164Z,11.77
2023-05-06T13:15:46.212Z,12.10
2023-05-06T13:18:22.169Z,11.27
2023-05-06T13:20:52.804Z,10.55
2023-05-06T13:23:19.811Z,9.63
2023-05-06T13:26:02.907Z,9.85
2023-05-06T13:28:32.339Z,9.52
2023-05-06T13:31:02.428Z,9.80
2023-05-06T13:33:36.978Z,10.35
2023-05-06T13:36:07.393Z,9.60
2023-05-06T13:38:37.170Z,9.73
2023-05-06T13:41:06.622Z,9.50
2023-05-06T13:43:33.640Z,9.80
2023-05-06T13:46:03.645Z,10.13
2023-05-06T13:48:36.781Z,9.80
2023-05-06T13:51:04.140Z,9.63
2023-05-06T13:53:35.108Z,9.60
2023-05-06T13:56:02.343Z,9.88
2023-05-06T13:58:29.391Z,9.40
2023-05-06T14:00:59.139Z,8.95
2023-05-06T14:03:26.269Z,9.52
2023-05-06T14:05:53.311Z,10.25
2023-05-06T14:08:21.857Z,9.05
2023-05-06T14:10:48.890Z,9.48
2023-05-06T14:13:16.028Z,9.27
2023-05-06T14:15:43.064Z,9.55
2023-05-06T14:18:11.805Z,9.82
2023-05-06T14:20:39.032Z,9.48
2023-05-06T14:23:07.767Z,10.43
2023-05-06T14:25:35.024Z,10.15
2023-05-06T14:28:02.987Z,10.07
2023-05-06T14:30:31.127Z,9.35
2023-05-06T14:32:58.846Z,9.85
2023-05-06T14:35:27.508Z,9.05
2023-05-06T14:37:56.001Z,9.15
2023-05-06T14:40:23.150Z,9.70
2023-05-06T14:42:50.793Z,8.90
2023-05-06T14:45:18.250Z,9.85
2023-05-06T14:47:45.378Z,8.90
2023-05-06T14:50:12.620Z,9.75
2023-05-06T14:52:40.186Z,9.90
2023-05-06T14:55:08.933Z,9.60
2023-05-06T14:57:36.456Z,12.60
2023-05-06T15:00:05.052Z,14.75
2023-05-06T15:02:32.513Z,12.90
2023-05-06T15:05:03.002Z,15.63
2023-05-06T15:07:32.164Z,15.40
2023-05-06T15:09:59.611Z,16.38
2023-05-06T15:12:26.725Z,20.00
2023-05-06T15:14:53.952Z,18.52
2023-05-06T15:17:21.398Z,20.55
2023-05-06T15:19:48.626Z,20.15
2023-05-06T15:22:15.897Z,20.92
2023-05-06T15:24:44.274Z,20.55
2023-05-06T15:27:11.357Z,21.75
2023-05-06T15:29:39.255Z,21.25
2023-05-06T15:32:06.987Z,22.50
2023-05-06T15:34:37.371Z,22.88
2023-05-06T15:37:04.650Z,21.65
2023-05-06T15:39:36.678Z,24.52
2023-05-06T15:42:04.245Z,23.98
2023-05-06T15:44:35.009Z,25.85
2023-05-06T15:47:02.893Z,21.08
2023-05-06T15:49:48.861Z,17.17
2023-05-06T15:52:18.401Z,21.52
2023-05-06T15:54:49.550Z,18.63
2023-05-06T15:57:17.695Z,20.30
2023-05-06T15:59:44.708Z,18.67
2023-05-06T16:04:41.829Z,21.13
2023-05-06T16:07:09.363Z,19.33
2023-05-06T16:09:38.684Z,18.85
2023-05-06T16:12:06.117Z,20.23
2023-05-06T16:14:33.840Z,19.88
2023-05-06T16:17:00.931Z,19.63
2023-05-06T16:19:30.856Z,18.67
2023-05-06T16:21:58.078Z,19.65
2023-05-06T16:24:25.024Z,19.45
2023-05-06T16:26:52.013Z,19.10
2023-05-06T16:29:20.704Z,17.30
2023-05-06T16:31:48.495Z,17.02
2023-05-06T16:34:15.666Z,16.80
2023-05-06T16:36:43.607Z,17.85
2023-05-06T16:39:10.626Z,16.35
2023-05-06T16:41:37.785Z,16.25
2023-05-06T16:44:06.098Z,15.80
2023-05-06T16:46:33.308Z,14.80
2023-05-06T16:49:03.779Z,15.27
2023-05-06T16:51:32.122Z,14.55
2023-05-06T16:53:59.857Z,15.48
2023-05-06T16:56:32.984Z,15.25
2023-05-06T16:59:09.082Z,14.52
2023-05-06T17:01:36.067Z,15.48
2023-05-06T17:04:03.484Z,14.57
2023-05-06T17:06:32.930Z,15.82
2023-05-06T17:08:59.995Z,13.93
2023-05-06T17:11:27.040Z,15.68
2023-05-06T17:13:54.577Z,15.25
2023-05-06T17:16:22.000Z,16.33
2023-05-06T17:18:49.101Z,16.90
2023-05-06T17:21:16.837Z,15.32
2023-05-06T17:23:48.080Z,15.98
2023-05-06T17:26:17.800Z,17.27
2023-05-06T17:28:48.385Z,17.40
2023-05-06T17:31:16.020Z,17.23
2023-05-06T17:33:44.474Z,17.58
2023-05-06T17:36:16.144Z,16.67
2023-05-06T17:38:43.468Z,18.35
2023-05-06T17:41:10.456Z,17.80
2023-05-06T17:43:37.936Z,16.98
2023-05-06T17:46:05.641Z,18.30
2023-05-06T17:48:32.760Z,17.70
2023-05-06T17:51:03.351Z,15.95
2023-05-06T17:53:32.886Z,16.65
2023-05-06T17:55:59.894Z,16.13
2023-05-06T17:58:27.074Z,15.30
2023-05-06T18:00:54.692Z,15.25
2023-05-06T18:03:23.258Z,14.77
2023-05-06T18:05:51.724Z,16.88
2023-05-06T18:08:18.744Z,16.65
2023-05-06T18:10:46.008Z,15.88
2023-05-06T18:13:37.127Z,16.60
2023-05-06T18:16:05.993Z,17.23
2023-05-06T18:18:33.025Z,16.42
2023-05-06T18:21:04.042Z,19.92
2023-05-06T18:23:32.748Z,17.67
2023-05-06T18:26:04.079Z,17.98
2023-05-06T18:28:31.405Z,19.85
2023-05-06T18:31:18.873Z,16.58
2023-05-06T18:33:45.921Z,15.70
2023-05-06T18:36:16.214Z,16.92
2023-05-06T18:38:46.193Z,16.30
2023-05-06T18:41:16.246Z,16.55
2023-05-06T18:43:48.624Z,15.63
2023-05-06T18:46:30.804Z,13.95
2023-05-06T18:48:59.067Z,15.65
2023-05-06T18:51:26.344Z,15.10
2023-05-06T18:53:53.719Z,16.35
2023-05-06T18:56:21.466Z,15.35
2023-05-06T18:58:48.552Z,15.95
2023-05-06T19:01:16.033Z,15.43
2023-05-06T19:03:43.647Z,14.95
2023-05-06T19:06:13.789Z,16.40
2023-05-06T19:08:40.858Z,14.48
2023-05-06T19:14:07.571Z,14.23
2023-05-06T19:16:34.636Z,14.77
2023-05-06T19:19:05.142Z,17.75
2023-05-06T19:21:38.317Z,14.57
2023-05-06T19:24:08.933Z,16.15
2023-05-06T19:26:40.141Z,16.92
2023-05-06T19:29:12.992Z,14.25
2023-05-06T19:31:40.958Z,14.82
2023-05-06T19:34:10.555Z,12.93
2023-05-06T19:36:37.571Z,13.75
2023-05-06T19:39:04.867Z,13.30
2023-05-06T19:41:34.737Z,13.70
2023-05-06T19:44:01.732Z,13.65
2023-05-06T19:46:31.822Z,13.90
2023-05-06T19:49:01.195Z,14.30
2023-05-06T19:51:34.756Z,12.63
2023-05-06T19:54:24.878Z,14.25
2023-05-06T19:56:53.591Z,12.93
2023-05-06T19:59:21.753Z,14.02
2023-05-06T20:01:48.827Z,14.18
2023-05-06T20:04:20.384Z,14.13
2023-05-06T20:06:47.439Z,14.45
2023-05-06T20:09:14.501Z,13.65
2023-05-06T20:11:41.653Z,13.00
2023-05-06T20:14:14.118Z,14.52
2023-05-06T20:16:44.606Z,15.88
2023-05-06T20:19:14.331Z,14.50
2023-05-06T20:21:41.583Z,11.88
2023-05-06T20:24:11.668Z,13.20
2023-05-06T20:26:41.329Z,13.30
2023-05-06T20:29:11.243Z,13.73
2023-05-06T20:31:38.558Z,12.07
2023-05-06T20:34:07.000Z,11.88
2023-05-06T20:36:35.045Z,12.02
2023-05-06T20:39:02.679Z,13.55
2023-05-06T20:41:32.516Z,12.82
2023-05-06T20:43:59.633Z,12.82
2023-05-06T20:46:26.889Z,12.88
2023-05-06T20:48:53.976Z,12.60
2023-05-06T20:51:21.925Z,14.10
2023-05-06T20:53:52.251Z,13.95
2023-05-06T20:56:20.880Z,13.57
2023-05-06T20:58:48.097Z,13.13
2023-05-06T21:01:16.389Z,13.82
2023-05-06T21:03:44.001Z,13.25
2023-05-06T21:06:11.227Z,13.10
2023-05-06T21:08:38.294Z,13.43
2023-05-06T21:11:05.857Z,13.18
2023-05-06T21:13:32.859Z,12.45
2023-05-06T21:16:00.395Z,12.65
2023-05-06T21:18:28.504Z,14.93
2023-05-06T21:20:55.742Z,14.18
2023-05-06T21:23:23.382Z,15.65
2023-05-06T21:25:50.886Z,13.80
2023-05-06T21:28:17.934Z,14.48
2023-05-06T21:30:45.030Z,15.05
2023-05-06T21:33:12.036Z,13.50
2023-05-06T21:35:39.126Z,13.15
2023-05-06T21:38:07.349Z,16.17
2023-05-06T21:40:51.291Z,16.48
2023-05-06T21:43:18.414Z,14.77
2023-05-06T21:45:45.476Z,13.63
2023-05-06T21:48:12.551Z,14.82
2023-05-06T21:50:39.881Z,13.52
2023-05-06T21:53:06.918Z,13.70
2023-05-06T21:55:34.099Z,13.88
2023-05-06T21:58:01.784Z,15.88
2023-05-06T22:00:29.735Z,14.88
2023-05-06T22:02:56.890Z,15.68
2023-05-06T22:05:24.123Z,16.80
2023-05-06T22:07:51.208Z,15.25
2023-05-06T22:10:18.209Z,15.52
2023-05-06T22:12:45.356Z,17.35
2023-05-06T22:15:13.889Z,15.13
2023-05-06T22:17:41.022Z,14.10
2023-05-06T22:20:10.910Z,15.40
2023-05-06T22:22:38.457Z,13.77
2023-05-06T22:25:06.096Z,13.13
2023-05-06T22:27:33.174Z,14.85
2023-05-06T22:30:00.431Z,15.13
2023-05-06T22:32:27.602Z,14.18
2023-05-06T22:34:54.859Z,13.40
2023-05-06T22:37:22.328Z,14.00
2023-05-06T22:39:50.918Z,14.60
2023-05-06T22:42:18.004Z,17.08
2023-05-06T22:44:45.065Z,16.65
2023-05-06T22:47:12.154Z,14.27
2023-05-06T22:49:39.275Z,15.95
2023-05-06T22:52:06.309Z,15.25
2023-05-06T22:54:33.735Z,15.13
2023-05-06T22:57:01.198Z,16.88
2023-05-06T22:59:28.405Z,16.33
2023-05-06T23:01:56.752Z,16.80
2023-05-06T23:04:24.443Z,13.65
2023-05-06T23:06:51.600Z,13.75
2023-05-06T23:09:18.720Z,14.25
2023-05-06T23:11:46.304Z,15.52
2023-05-06T23:14:13.377Z,13.70
2023-05-06T23:16:40.862Z,15.73
2023-05-06T23:19:08.066Z,14.00
2023-05-06T23:21:35.700Z,14.63
2023-05-06T23:24:03.083Z,13.45
2023-05-06T23:26:30.874Z,14.25
2023-05-06T23:28:57.936Z,14.93
2023-05-06T23:31:25.032Z,15.15
2023-05-06T23:33:52.092Z,14.15
2023-05-06T23:36:19.217Z,14.18
2023-05-06T23:38:46.457Z,13.82
2023-05-06T23:41:13.630Z,13.07
2023-05-06T23:43:41.392Z,12.95
2023-05-06T23:46:11.251Z,13.75
2023-05-06T23:48:38.464Z,16.13
2023-05-06T23:51:05.506Z,13.20
2023-05-06T23:53:32.921Z,15.55
2023-05-06T23:56:00.454Z,13.40
2023-05-06T23:58:27.852Z,12.82
